Tannersville, Virginia
Current Conditions -  °F | °C
As of 3:35 AM on Sunday 26 Oct 2014 (Local Time) from KJFZ Reporting Station
Overcast Overcast  
Wind Chill: 15°   Ceiling: 1000
Heat Index: 15°   Visibility: 10mi
Dew Point:   Wind: 8mph
Humidity: 41%   Direction: 240°WSW
Pressure: 29.97"   Gusts: NA
Location:  36.98°N, 81.63°W
Report Text: KJFZ 260735Z AUTO 24007KT 10SM OVC010 15/01 A2997 RMK AO2 T01450014
Loading
Personal Weather Stations






























Interactive Weather Map
Tropical Storm Tracking
New forecast layout! Learn more

10-Day Weather Forecast

Advertisements
Track Severe Weather on mobile